createdAt,value
2018-06-05T00:00:46.177Z,797.80
2018-06-05T00:03:26.834Z,966.93
2018-06-05T00:06:06.257Z,990.83
2018-06-05T00:08:44.994Z,709.33
2018-06-05T00:11:25.096Z,853.47
2018-06-05T00:14:04.631Z,655.53
2018-06-05T00:16:43.270Z,473.10
2018-06-05T00:19:21.714Z,377.43
2018-06-05T00:22:00.332Z,429.17
2018-06-05T00:24:38.674Z,486.83
2018-06-05T00:27:17.636Z,514.33
2018-06-05T00:29:57.640Z,446.80
2018-06-05T00:32:38.792Z,416.27
2018-06-05T00:35:16.353Z,704.60
2018-06-05T00:37:55.753Z,993.23
2018-06-05T00:40:35.335Z,999.90
2018-06-05T00:43:14.994Z,999.90
2018-06-05T00:45:57.174Z,971.93
2018-06-05T00:48:36.515Z,958.33
2018-06-05T00:51:26.891Z,890.70
2018-06-05T00:54:06.040Z,918.73
2018-06-05T00:56:44.375Z,665.40
2018-06-05T00:59:20.469Z,914.57
2018-06-05T01:01:59.050Z,834.70
2018-06-05T01:04:38.012Z,706.33
2018-06-05T01:07:16.716Z,840.97
2018-06-05T01:09:55.563Z,789.40
2018-06-05T01:12:32.994Z,815.93
2018-06-05T01:15:12.992Z,701.27
2018-06-05T01:17:51.711Z,712.53
2018-06-05T01:20:30.874Z,676.27
2018-06-05T01:23:09.797Z,648.60
2018-06-05T01:25:48.490Z,673.93
2018-06-05T01:28:27.634Z,638.13
2018-06-05T01:31:07.134Z,566.53
2018-06-05T01:33:48.010Z,575.40
2018-06-05T01:36:27.409Z,625.00
2018-06-05T01:39:05.797Z,597.97
2018-06-05T01:41:44.914Z,624.33
2018-06-05T01:44:23.152Z,747.37
2018-06-05T01:47:01.775Z,830.37
2018-06-05T01:49:45.450Z,789.97
2018-06-05T01:52:23.855Z,790.50
2018-06-05T01:55:02.039Z,899.37
2018-06-05T01:57:42.248Z,911.93
2018-06-05T02:00:20.493Z,910.83
2018-06-05T02:03:00.160Z,938.40
2018-06-05T02:05:38.396Z,930.60
2018-06-05T02:08:16.692Z,856.80
2018-06-05T02:10:57.393Z,753.37
2018-06-05T02:13:35.798Z,615.87
2018-06-05T02:16:15.469Z,527.70
2018-06-05T02:18:54.316Z,493.00
2018-06-05T02:21:32.673Z,855.63
2018-06-05T02:24:11.193Z,895.57
2018-06-05T02:26:49.831Z,999.90
2018-06-05T02:29:29.372Z,999.90
2018-06-05T02:32:08.052Z,999.90
2018-06-05T02:34:46.714Z,999.90
2018-06-05T02:37:26.031Z,999.90
2018-06-05T02:40:03.892Z,999.90
2018-06-05T02:42:42.511Z,999.90
2018-06-05T02:45:21.291Z,999.90
2018-06-05T02:47:59.572Z,999.90
2018-06-05T02:50:39.135Z,999.90
2018-06-05T02:53:17.972Z,999.90
2018-06-05T02:55:56.258Z,999.90
2018-06-05T02:58:35.155Z,999.90
2018-06-05T03:01:14.296Z,999.90
2018-06-05T03:03:52.437Z,999.90
2018-06-05T04:29:55.236Z,952.63
2018-06-05T04:32:34.418Z,999.90
2018-06-05T04:35:16.556Z,999.90
2018-06-05T04:37:55.993Z,999.90
2018-06-05T04:40:37.353Z,999.90
2018-06-05T04:43:14.372Z,999.90
2018-06-05T04:45:53.457Z,999.90
2018-06-05T04:48:31.014Z,999.90
2018-06-05T04:51:14.253Z,999.90
2018-06-05T04:53:58.054Z,999.90
2018-06-05T04:56:37.776Z,999.90
2018-06-05T04:59:18.030Z,999.90
2018-06-05T05:02:00.276Z,999.90
2018-06-05T05:04:37.913Z,971.80
2018-06-05T05:07:18.291Z,973.47
2018-06-05T05:09:59.196Z,917.67
2018-06-05T05:12:37.973Z,851.87
2018-06-05T05:15:17.196Z,536.70
2018-06-05T05:18:00.759Z,417.07
2018-06-05T05:20:43.275Z,426.23
2018-06-05T05:23:25.550Z,515.77
2018-06-05T05:26:05.113Z,510.60
2018-06-05T05:28:54.737Z,444.40
2018-06-05T05:31:35.256Z,503.07
2018-06-05T05:34:12.831Z,430.43
2018-06-05T05:36:55.233Z,472.87
2018-06-05T05:39:37.114Z,967.20
2018-06-05T05:42:18.816Z,999.90
2018-06-05T05:44:59.915Z,999.90
2018-06-05T05:47:43.212Z,999.90
2018-06-05T05:50:23.769Z,999.90
2018-06-05T05:53:06.416Z,999.90
2018-06-05T05:55:45.013Z,999.90
2018-06-05T05:58:26.154Z,995.73
2018-06-05T06:01:06.313Z,999.90
2018-06-05T06:03:43.818Z,999.90
2018-06-05T06:06:25.091Z,999.90
2018-06-05T06:09:04.017Z,525.97
2018-06-05T06:11:48.071Z,999.90
2018-06-05T06:14:33.123Z,986.83
2018-06-05T06:17:22.472Z,878.00
2018-06-05T06:20:05.655Z,748.80
2018-06-05T06:22:43.990Z,999.90
2018-06-05T06:25:27.895Z,999.90
2018-06-05T06:28:07.359Z,805.77
2018-06-05T06:30:50.456Z,129.77
2018-06-05T06:33:30.552Z,277.37
2018-06-05T06:36:11.895Z,589.40
2018-06-05T06:38:57.178Z,538.43
2018-06-05T06:41:55.032Z,592.37
2018-06-05T06:44:32.415Z,590.60
2018-06-05T06:47:18.309Z,618.80
2018-06-05T06:50:06.161Z,732.63
2018-06-05T06:52:48.335Z,770.97
2018-06-05T06:55:30.156Z,840.77
2018-06-05T06:58:15.160Z,934.53
2018-06-05T07:00:55.809Z,903.80
2018-06-05T07:03:34.269Z,379.27
2018-06-05T07:06:23.860Z,68.30
2018-06-05T07:09:01.570Z,59.60
2018-06-05T07:11:39.394Z,47.13
2018-06-05T07:14:19.012Z,50.30
2018-06-05T07:17:00.339Z,57.80
2018-06-05T07:19:47.940Z,67.03
2018-06-05T07:22:30.214Z,73.17
2018-06-05T07:25:13.196Z,98.20
2018-06-05T07:27:55.268Z,118.42
2018-06-05T07:30:36.397Z,166.50
2018-06-05T07:33:28.071Z,176.25
2018-06-05T07:36:08.537Z,198.57
2018-06-05T07:38:51.756Z,220.63
2018-06-05T07:41:40.074Z,231.07
2018-06-05T07:44:19.259Z,244.00
2018-06-05T07:46:59.139Z,221.13
2018-06-05T07:49:37.537Z,224.65
2018-06-05T07:52:16.615Z,289.95
2018-06-05T07:54:55.431Z,321.70
2018-06-05T07:57:35.197Z,295.55
2018-06-05T08:00:14.778Z,257.43
2018-06-05T08:02:55.080Z,298.02
2018-06-05T08:05:37.117Z,362.95
2018-06-05T08:08:19.177Z,355.98
2018-06-05T08:11:01.196Z,276.48
2018-06-05T08:13:40.239Z,357.85
2018-06-05T08:16:19.552Z,349.37
2018-06-05T08:18:58.313Z,362.23
2018-06-05T08:21:36.494Z,386.82
2018-06-05T08:24:18.055Z,372.17
2018-06-05T08:27:02.440Z,362.85
2018-06-05T08:29:43.935Z,370.05
2018-06-05T08:32:29.294Z,411.47
2018-06-05T08:35:11.554Z,416.75
2018-06-05T08:37:52.383Z,475.87
2018-06-05T08:40:30.590Z,455.52
2018-06-05T08:43:13.112Z,470.40
2018-06-05T08:45:52.238Z,492.33
2018-06-05T08:48:31.474Z,464.50
2018-06-05T08:51:13.437Z,350.15
2018-06-05T08:53:55.898Z,397.48
2018-06-05T08:56:48.734Z,361.82
2018-06-05T08:59:27.893Z,386.65
2018-06-05T09:02:08.434Z,374.40
2018-06-05T09:04:52.599Z,361.68
2018-06-05T09:07:32.534Z,367.37
2018-06-05T09:10:12.673Z,323.05
2018-06-05T09:42:41.396Z,153.87
2018-06-05T09:45:27.337Z,116.70
2018-06-05T09:48:06.951Z,129.65
2018-06-05T09:50:50.556Z,96.40
2018-06-05T09:53:31.009Z,119.25
2018-06-05T10:49:37.072Z,156.10
2018-06-05T10:52:15.936Z,182.75
2018-06-05T10:55:00.033Z,173.62
2018-06-05T10:57:37.513Z,131.78
2018-06-05T11:00:15.053Z,153.07
2018-06-05T11:02:54.039Z,123.82
2018-06-05T11:05:34.675Z,129.07
2018-06-05T11:08:14.195Z,223.50
2018-06-05T11:10:54.313Z,197.22
2018-06-05T11:13:38.874Z,219.18
2018-06-05T11:16:23.212Z,202.00
2018-06-05T11:19:04.451Z,181.18
2018-06-05T11:21:44.108Z,152.90
2018-06-05T11:24:25.917Z,167.22
2018-06-05T11:27:09.136Z,226.00
2018-06-05T11:29:49.932Z,209.47
2018-06-05T11:32:29.709Z,190.77
2018-06-05T11:35:10.017Z,195.18
2018-06-05T11:37:50.950Z,194.30
2018-06-05T11:40:33.071Z,152.00
2018-06-05T11:43:13.916Z,207.98
2018-06-05T11:45:54.157Z,138.95
2018-06-05T11:48:36.275Z,183.18
2018-06-05T11:51:21.799Z,223.80
2018-06-05T11:54:06.525Z,233.65
2018-06-05T11:56:49.372Z,224.22
2018-06-05T11:59:32.861Z,274.52
2018-06-05T12:02:16.333Z,241.55
2018-06-05T12:05:05.023Z,257.57
2018-06-05T12:07:56.029Z,312.27
2018-06-05T12:10:43.980Z,328.12
2018-06-05T12:13:23.192Z,343.42
2018-06-05T12:16:07.362Z,287.50
2018-06-05T12:18:54.332Z,368.63
2018-06-05T12:21:38.752Z,394.80
2018-06-05T12:24:17.733Z,373.05
2018-06-05T12:27:03.742Z,351.00
2018-06-05T12:29:48.475Z,327.98
2018-06-05T12:32:27.397Z,352.25
2018-06-05T12:35:07.785Z,396.87
2018-06-05T12:37:49.332Z,280.12
2018-06-05T12:40:33.177Z,215.12
2018-06-05T12:43:14.993Z,249.35
2018-06-05T12:46:00.135Z,264.08
2018-06-05T12:48:43.834Z,241.88
2018-06-05T12:51:22.734Z,249.20
2018-06-05T12:54:01.842Z,242.40
2018-06-05T12:56:45.909Z,236.25
2018-06-05T12:59:25.536Z,285.43
2018-06-05T13:02:04.194Z,298.87
2018-06-05T13:04:49.959Z,301.18
2018-06-05T13:07:31.142Z,319.30
2018-06-05T13:10:09.793Z,290.38
2018-06-05T13:12:57.189Z,265.80
2018-06-05T13:15:39.131Z,354.73
2018-06-05T14:47:32.854Z,337.98
2018-06-05T14:50:22.865Z,356.87
2018-06-05T14:53:02.718Z,340.00
2018-06-05T14:55:44.273Z,348.02
2018-06-05T14:58:32.057Z,296.27
2018-06-05T15:01:12.937Z,312.60
2018-06-05T15:03:53.592Z,355.45
2018-06-05T15:06:37.072Z,373.93
2018-06-05T15:09:21.071Z,285.60
2018-06-05T15:12:01.237Z,305.92
2018-06-05T15:14:44.591Z,400.95
2018-06-05T15:17:30.593Z,306.93
2018-06-05T15:20:23.876Z,239.20
2018-06-05T15:23:04.461Z,293.12
2018-06-05T15:25:48.677Z,268.85
2018-06-05T15:28:27.796Z,281.80
2018-06-05T15:31:08.698Z,310.32
2018-06-05T15:33:50.506Z,245.52
2018-06-05T15:36:51.492Z,254.85
2018-06-05T15:39:35.854Z,227.10
2018-06-05T15:42:15.513Z,217.15
2018-06-05T15:44:55.374Z,292.85
2018-06-05T15:47:34.173Z,261.98
2018-06-05T15:50:18.355Z,269.02
2018-06-05T15:53:02.448Z,264.17
2018-06-05T15:55:41.862Z,234.80
2018-06-05T15:58:26.171Z,224.73
2018-06-05T16:01:03.293Z,232.67
2018-06-05T16:03:42.774Z,207.60
2018-06-05T16:06:23.015Z,272.45
2018-06-05T16:09:03.376Z,260.05
2018-06-05T16:11:44.138Z,173.10
2018-06-05T16:14:26.077Z,260.55
2018-06-05T16:17:04.510Z,205.43
2018-06-05T16:19:44.992Z,219.20
2018-06-05T16:22:22.783Z,249.00
2018-06-05T16:25:05.797Z,252.93
2018-06-05T16:27:51.770Z,310.10
2018-06-05T16:30:40.718Z,266.82
2018-06-05T16:33:24.278Z,243.60
2018-06-05T16:36:04.954Z,235.28
2018-06-05T16:38:46.236Z,353.32
2018-06-05T16:41:26.375Z,275.48
2018-06-05T16:44:06.532Z,175.40
2018-06-05T16:46:44.334Z,152.38
2018-06-05T16:49:22.258Z,109.50
2018-06-05T16:52:03.190Z,139.50
2018-06-05T16:54:41.777Z,125.35
2018-06-05T16:57:23.614Z,156.82
2018-06-05T17:00:04.252Z,117.28
2018-06-05T17:02:46.219Z,115.40
2018-06-05T17:05:33.620Z,143.57
2018-06-05T17:08:14.155Z,120.82
2018-06-05T17:10:56.095Z,99.32
2018-06-05T17:13:35.738Z,106.70
2018-06-05T17:16:14.414Z,71.72
2018-06-05T17:18:52.657Z,67.45
2018-06-05T17:21:44.765Z,101.42
2018-06-05T17:24:25.345Z,102.55
2018-06-05T17:27:09.655Z,97.65
2018-06-05T17:29:51.420Z,118.53
2018-06-05T17:32:36.925Z,133.15
2018-06-05T17:35:15.229Z,132.15
2018-06-05T17:37:55.143Z,121.87
2018-06-05T17:43:47.814Z,110.68
2018-06-05T17:49:33.917Z,85.32
2018-06-05T17:52:15.347Z,160.22
2018-06-05T17:54:59.657Z,86.40
2018-06-05T17:57:41.750Z,104.40
2018-06-05T18:00:20.583Z,77.80
2018-06-05T18:03:03.322Z,68.28
2018-06-05T18:05:56.341Z,84.17
2018-06-05T18:08:38.894Z,111.62
2018-06-05T18:11:22.442Z,76.10
2018-06-05T18:14:08.865Z,83.95
2018-06-05T18:16:49.188Z,108.25
2018-06-05T18:19:27.375Z,199.57
2018-06-05T18:27:00.520Z,170.80
2018-06-05T18:29:40.330Z,84.62
2018-06-05T18:32:19.616Z,145.53
2018-06-05T18:35:07.308Z,171.60
2018-06-05T18:40:42.397Z,171.53
2018-06-05T18:46:18.950Z,139.27
2018-06-05T18:48:58.327Z,205.07
2018-06-05T18:51:38.639Z,240.33
2018-06-05T18:54:20.195Z,251.42
2018-06-05T18:56:58.259Z,292.03
2018-06-05T18:59:36.333Z,207.87
2018-06-05T19:02:17.474Z,210.67
2018-06-05T19:05:02.237Z,255.97
2018-06-05T19:07:44.533Z,239.70
2018-06-05T19:10:23.194Z,89.17
2018-06-05T19:13:05.168Z,60.35
2018-06-05T19:15:44.596Z,69.15
2018-06-05T19:18:23.751Z,77.22
2018-06-05T19:21:08.874Z,58.23
2018-06-05T19:23:46.435Z,83.60
2018-06-05T19:26:32.770Z,62.50
2018-06-05T19:29:15.258Z,53.50
2018-06-05T19:31:58.098Z,55.53
2018-06-05T19:34:36.820Z,70.30
2018-06-05T19:37:17.791Z,59.33
2018-06-05T19:39:59.651Z,57.47
2018-06-05T19:42:43.571Z,130.50
2018-06-05T19:45:23.450Z,116.27
2018-06-05T19:48:01.493Z,73.53
2018-06-05T19:50:41.575Z,69.03
2018-06-05T19:53:23.410Z,80.53
2018-06-05T19:56:07.178Z,81.57
2018-06-05T19:58:47.379Z,95.03
2018-06-05T20:01:34.350Z,126.07
2018-06-05T20:04:14.672Z,189.77
2018-06-05T20:06:53.679Z,292.87
2018-06-05T20:09:36.112Z,226.33
2018-06-05T20:12:13.432Z,266.67
2018-06-05T20:14:57.132Z,339.33
2018-06-05T20:17:38.856Z,383.83
2018-06-05T20:20:19.898Z,479.00
2018-06-05T20:22:58.115Z,509.50
2018-06-05T20:25:41.049Z,427.03
2018-06-05T20:28:23.439Z,470.40
2018-06-05T20:31:02.859Z,339.47
2018-06-05T20:33:40.479Z,170.60
2018-06-05T20:36:21.775Z,166.13
2018-06-05T20:39:06.815Z,111.53
2018-06-05T20:41:50.832Z,261.07
2018-06-05T20:44:36.157Z,220.37
2018-06-05T20:47:17.733Z,284.40
2018-06-05T20:49:59.458Z,425.57
2018-06-05T20:52:39.154Z,478.77
2018-06-05T20:55:21.220Z,482.87
2018-06-05T20:58:00.848Z,345.20
2018-06-05T21:00:40.552Z,490.87
2018-06-05T22:33:35.881Z,999.90
2018-06-05T22:36:19.223Z,999.90
2018-06-05T22:38:57.778Z,999.90
2018-06-05T22:41:37.798Z,999.90
2018-06-05T22:44:17.819Z,999.90
2018-06-05T22:47:00.863Z,999.90
2018-06-05T22:49:41.898Z,999.90
2018-06-05T22:52:22.017Z,999.90
2018-06-05T22:55:03.321Z,999.90
2018-06-05T22:57:44.926Z,999.90
2018-06-05T23:00:44.620Z,999.90
2018-06-05T23:03:25.515Z,999.90
2018-06-05T23:06:04.482Z,999.90
2018-06-05T23:08:45.463Z,999.90
2018-06-05T23:11:24.599Z,999.90
2018-06-05T23:14:03.483Z,999.90
2018-06-05T23:16:42.502Z,999.90
